Time;durP1;ratioP1;P1;durP2;ratioP2;P2;SDS_P1;SDS_P2;PMS_P1;PMS_P2;Temp;Humidity;BMP_temperature;BMP_pressure;BME280_temperature;BME280_humidity;BME280_pressure;Samples;Min_cycle;Max_cycle;Signal;HPM_P1;HPM_P2
2022/01/11 00:02:06;;;;;;;15.80;11.90;;;4.60;98.30;;;;;;5059947;28;20269;-67
2022/01/11 00:04:32;;;;;;;15.00;11.40;;;4.60;98.30;;;;;;5071043;28;20765;-68
2022/01/11 00:07:00;;;;;;;16.87;12.57;;;4.60;98.30;;;;;;5068537;28;20548;-68
2022/01/11 00:09:40;;;;;;;19.30;14.05;;;4.60;98.50;;;;;;5067799;28;20184;-68
2022/01/11 00:12:08;;;;;;;16.30;11.40;;;4.60;98.50;;;;;;5053780;28;20165;-68
2022/01/11 00:14:35;;;;;;;16.13;11.50;;;4.60;98.60;;;;;;5073877;28;20276;-67
2022/01/11 00:17:01;;;;;;;14.85;12.23;;;4.50;98.90;;;;;;5075149;28;20185;-67
2022/01/11 00:19:30;;;;;;;17.17;11.90;;;4.60;98.90;;;;;;5070278;28;20173;-67
2022/01/11 00:21:58;;;;;;;14.18;10.45;;;4.60;98.90;;;;;;5055163;28;20174;-67
2022/01/11 00:27:08;;;;;;;16.17;11.27;;;4.30;98.20;;;;;;5054308;28;20206;-67
2022/01/11 00:29:36;;;;;;;15.45;10.55;;;4.60;98.20;;;;;;5054573;28;20182;-67
2022/01/11 00:32:08;;;;;;;14.93;11.50;;;4.60;98.10;;;;;;5072037;28;20267;-67
2022/01/11 00:34:49;;;;;;;13.40;10.35;;;4.60;97.80;;;;;;5074559;28;20178;-67
2022/01/11 00:37:15;;;;;;;14.80;10.88;;;4.20;98.00;;;;;;5074692;28;20184;-68
2022/01/11 00:39:45;;;;;;;18.13;10.98;;;4.60;98.40;;;;;;5073828;28;20533;-69
2022/01/11 00:42:15;;;;;;;15.40;10.75;;;4.60;98.50;;;;;;5071997;28;20625;-74
2022/01/11 00:44:41;;;;;;;15.35;12.07;;;4.50;98.40;;;;;;5074775;28;20220;-67
2022/01/11 00:47:07;;;;;;;14.98;11.95;;;4.60;98.20;;;;;;5075015;28;20789;-67
2022/01/11 00:49:34;;;;;;;14.07;10.87;;;4.50;97.70;;;;;;5074267;28;20253;-67
2022/01/11 00:52:00;;;;;;;19.42;12.15;;;4.50;98.00;;;;;;5074893;28;20248;-69
2022/01/11 00:54:27;;;;;;;14.60;11.30;;;4.40;98.10;;;;;;5073501;28;20181;-67
2022/01/11 00:56:52;;;;;;;14.55;11.60;;;4.20;97.80;;;;;;5074483;28;20169;-67
2022/01/11 00:59:18;;;;;;;12.90;10.90;;;4.40;97.90;;;;;;5073784;28;20594;-68
2022/01/11 01:01:44;;;;;;;14.90;11.20;;;4.40;98.10;;;;;;5074964;28;20734;-67
2022/01/11 01:04:09;;;;;;;13.67;11.07;;;4.40;98.10;;;;;;5074842;28;20404;-68
2022/01/11 01:06:39;;;;;;;17.60;12.07;;;4.30;98.10;;;;;;5071600;28;20205;-67
2022/01/11 01:09:05;;;;;;;16.48;10.20;;;4.40;98.40;;;;;;5074701;28;20226;-67
2022/01/11 01:11:32;;;;;;;13.05;10.43;;;4.30;98.70;;;;;;5073248;28;20220;-67
2022/01/11 01:13:58;;;;;;;14.40;9.85;;;4.30;98.40;;;;;;5073133;28;20181;-67
2022/01/11 01:16:24;;;;;;;15.00;10.65;;;4.10;97.90;;;;;;5072063;28;20189;-67
2022/01/11 01:18:50;;;;;;;12.37;10.43;;;4.30;97.80;;;;;;5074073;28;20640;-67
2022/01/11 01:21:16;;;;;;;14.63;10.30;;;4.10;97.80;;;;;;5073737;28;20399;-75
2022/01/11 01:23:42;;;;;;;18.20;10.77;;;4.30;98.10;;;;;;5071559;28;20181;-67
2022/01/11 01:26:08;;;;;;;12.95;10.23;;;4.30;98.00;;;;;;5074066;28;20244;-67
2022/01/11 01:28:34;;;;;;;14.43;11.13;;;4.00;97.60;;;;;;5072969;28;20410;-67
2022/01/11 01:31:01;;;;;;;11.43;9.70;;;3.90;97.30;;;;;;5073746;28;20477;-67
2022/01/11 01:33:31;;;;;;;15.43;11.02;;;4.20;97.70;;;;;;5067053;28;20394;-67
2022/01/11 01:36:03;;;;;;;15.40;10.70;;;4.20;97.90;;;;;;5052033;28;20178;-67
2022/01/11 01:38:32;;;;;;;14.05;10.45;;;4.00;98.00;;;;;;5035257;28;20625;-67
2022/01/11 01:41:08;;;;;;;12.77;10.48;;;3.90;98.10;;;;;;5063247;28;20177;-67
2022/01/11 01:43:34;;;;;;;12.23;10.13;;;4.20;98.10;;;;;;5061335;28;20217;-67
2022/01/11 01:46:01;;;;;;;15.13;12.07;;;4.20;98.10;;;;;;5053704;28;20291;-68
2022/01/11 01:48:27;;;;;;;17.63;11.90;;;3.70;97.90;;;;;;5052694;28;20573;-67
2022/01/11 01:50:53;;;;;;;12.85;10.23;;;4.10;97.50;;;;;;5052560;28;20177;-67
2022/01/11 01:53:20;;;;;;;16.63;11.70;;;4.10;97.80;;;;;;5034899;28;20189;-68
2022/01/11 01:55:47;;;;;;;16.75;12.07;;;4.10;98.00;;;;;;5035647;28;20265;-67
2022/01/11 01:58:14;;;;;;;14.30;10.57;;;3.70;98.00;;;;;;5053930;28;20571;-67
2022/01/11 02:00:43;;;;;;;13.88;9.95;;;3.70;97.70;;;;;;5035092;28;20212;-67
2022/01/11 02:03:15;;;;;;;16.02;11.32;;;4.10;97.80;;;;;;5044560;28;20257;-67
2022/01/11 02:05:42;;;;;;;16.20;10.68;;;4.10;97.80;;;;;;5032694;28;20177;-67
2022/01/11 02:08:09;;;;;;;13.85;10.65;;;3.70;97.40;;;;;;5033662;28;20678;-67
2022/01/11 02:10:36;;;;;;;17.67;10.90;;;4.00;97.80;;;;;;5043446;28;20205;-67
2022/01/11 02:13:03;;;;;;;14.90;11.48;;;3.90;97.80;;;;;;5053344;28;20184;-67
2022/01/11 02:15:29;;;;;;;15.25;10.77;;;4.00;98.00;;;;;;5052229;28;20173;-67
2022/01/11 02:18:05;;;;;;;13.85;10.60;;;3.90;97.50;;;;;;5053498;28;20178;-67
2022/01/11 02:20:30;;;;;;;15.57;11.45;;;4.00;97.50;;;;;;5041603;28;20178;-68
2022/01/11 02:22:56;;;;;;;12.83;10.63;;;3.90;97.50;;;;;;5032517;28;20584;-67
2022/01/11 02:25:23;;;;;;;14.80;10.60;;;4.00;97.80;;;;;;5032225;28;20174;-67
2022/01/11 02:27:49;;;;;;;14.52;10.52;;;4.00;98.00;;;;;;5032959;28;20221;-67
2022/01/11 02:30:15;;;;;;;13.33;10.77;;;3.50;97.80;;;;;;5032932;28;20175;-67
2022/01/11 02:32:51;;;;;;;17.57;11.33;;;3.90;97.60;;;;;;5032209;28;20212;-69
2022/01/11 02:35:17;;;;;;;14.45;10.38;;;3.90;97.60;;;;;;5032897;28;20413;-77
2022/01/11 02:37:44;;;;;;;14.63;11.30;;;3.90;97.60;;;;;;4998260;28;20179;-68
2022/01/11 02:40:12;;;;;;;14.60;11.95;;;3.90;97.60;;;;;;5032796;28;20787;-68
2022/01/11 02:42:39;;;;;;;14.63;10.73;;;4.00;97.70;;;;;;5035479;28;20798;-69
2022/01/11 02:45:15;;;;;;;14.60;11.00;;;3.60;97.80;;;;;;5055932;28;20212;-69
2022/01/11 02:47:41;;;;;;;15.35;10.23;;;3.90;98.00;;;;;;5055904;28;20262;-69
2022/01/11 02:50:08;;;;;;;15.20;11.35;;;3.90;97.90;;;;;;5071527;28;20188;-68
2022/01/11 02:52:34;;;;;;;14.10;9.68;;;3.90;98.00;;;;;;5077454;28;20234;-69
2022/01/11 02:55:01;;;;;;;15.80;10.10;;;3.80;97.90;;;;;;5077328;28;20629;-68
2022/01/11 02:57:26;;;;;;;10.77;9.63;;;3.40;97.30;;;;;;5077020;28;20180;-68
2022/01/11 02:59:52;;;;;;;13.90;9.63;;;3.80;97.30;;;;;;5078305;28;20177;-68
2022/01/11 03:02:18;;;;;;;15.17;10.30;;;3.80;97.00;;;;;;5074788;28;20177;-68
2022/01/11 03:04:44;;;;;;;14.30;10.17;;;3.80;97.00;;;;;;5078087;28;20176;-68
2022/01/11 03:07:10;;;;;;;13.88;10.25;;;3.80;97.30;;;;;;5077243;28;20531;-68
2022/01/11 03:09:53;;;;;;;12.73;10.10;;;3.80;97.40;;;;;;5075578;28;20182;-68
2022/01/11 03:12:23;;;;;;;14.88;11.85;;;3.70;97.30;;;;;;5075989;28;20259;-76
2022/01/11 03:14:49;;;;;;;14.98;11.23;;;3.70;97.70;;;;;;5074985;28;20182;-68
2022/01/11 03:17:14;;;;;;;14.20;10.30;;;3.70;97.60;;;;;;5073765;28;20200;-68
2022/01/11 03:19:40;;;;;;;14.63;9.73;;;3.70;97.50;;;;;;5071870;28;20165;-68
2022/01/11 03:22:06;;;;;;;16.33;10.70;;;3.70;97.30;;;;;;5071698;28;20279;-68
2022/01/11 03:24:31;;;;;;;16.23;11.53;;;3.70;97.20;;;;;;5070576;28;20200;-68
2022/01/11 03:26:57;;;;;;;18.37;12.43;;;3.40;97.40;;;;;;5071869;28;20539;-68
2022/01/11 03:29:23;;;;;;;16.80;12.17;;;3.40;97.80;;;;;;5071573;28;20180;-77
2022/01/11 03:31:48;;;;;;;14.60;11.70;;;3.60;97.80;;;;;;5072292;28;20242;-68
2022/01/11 03:34:19;;;;;;;13.27;10.43;;;3.70;97.80;;;;;;5069350;28;20656;-69
2022/01/11 03:36:45;;;;;;;16.60;12.60;;;3.90;97.50;;;;;;5050131;28;20213;-68
2022/01/11 03:39:11;;;;;;;17.52;11.82;;;3.80;97.40;;;;;;5050476;28;20185;-69
2022/01/11 03:41:37;;;;;;;17.10;12.88;;;3.20;97.10;;;;;;5050985;28;20208;-68
2022/01/11 03:44:03;;;;;;;14.73;11.53;;;3.40;97.30;;;;;;5052020;28;20256;-68
2022/01/11 03:46:29;;;;;;;17.05;11.73;;;3.60;97.60;;;;;;5055282;28;20459;-68
2022/01/11 03:48:54;;;;;;;15.67;11.00;;;3.20;97.40;;;;;;5076012;28;20207;-68
2022/01/11 03:51:20;;;;;;;15.33;11.47;;;3.60;97.60;;;;;;5074654;28;20521;-68
2022/01/11 03:54:24;;;;;;;16.80;12.17;;;3.60;97.50;;;;;;5073720;28;20184;-68
2022/01/11 03:56:38;;;;;;;17.45;12.85;;;3.40;97.30;;;;;;5071846;28;20534;-68
2022/01/11 03:59:08;;;;;;;17.33;12.27;;;3.30;97.40;;;;;;5075885;28;20181;-68
2022/01/11 04:01:35;;;;;;;18.30;13.27;;;3.60;97.50;;;;;;5074331;28;20181;-68
2022/01/11 04:04:02;;;;;;;15.55;12.60;;;3.60;97.30;;;;;;5075648;28;20176;-69
2022/01/11 04:06:28;;;;;;;14.85;12.13;;;3.60;97.50;;;;;;5073743;28;20211;-69
2022/01/11 04:08:54;;;;;;;14.83;11.17;;;3.60;97.80;;;;;;5075519;28;20188;-68
2022/01/11 04:11:20;;;;;;;15.40;11.90;;;3.20;97.70;;;;;;5075659;28;20185;-69
2022/01/11 04:13:46;;;;;;;17.43;12.20;;;3.30;97.40;;;;;;5074723;28;20986;-68
2022/01/11 04:16:12;;;;;;;18.05;12.50;;;3.70;97.70;;;;;;5060621;28;20185;-68
2022/01/11 04:18:38;;;;;;;15.27;11.38;;;3.70;97.80;;;;;;5053125;28;20174;-68
2022/01/11 04:21:04;;;;;;;19.20;12.57;;;3.20;97.60;;;;;;5053949;28;20624;-68
2022/01/11 04:23:30;;;;;;;14.90;12.25;;;3.50;97.70;;;;;;5054108;28;20523;-69
2022/01/11 04:25:56;;;;;;;14.80;11.68;;;3.70;97.40;;;;;;5054661;28;20205;-68
2022/01/11 04:28:25;;;;;;;15.43;13.20;;;3.30;96.90;;;;;;5055471;28;20235;-68
2022/01/11 04:30:52;;;;;;;15.20;12.45;;;3.60;96.70;;;;;;5074725;28;20272;-68
2022/01/11 04:33:19;;;;;;;17.38;11.30;;;3.20;96.50;;;;;;5072062;28;20173;-68
2022/01/11 04:35:48;;;;;;;13.57;11.15;;;3.50;96.60;;;;;;5074298;28;20180;-68
2022/01/11 04:38:19;;;;;;;16.13;12.88;;;3.30;96.50;;;;;;5074705;28;20248;-68
2022/01/11 04:40:45;;;;;;;11.38;9.68;;;3.50;96.80;;;;;;5073983;28;20259;-69
2022/01/11 04:43:11;;;;;;;14.98;10.77;;;3.30;96.80;;;;;;5059887;28;20218;-68
2022/01/11 04:45:36;;;;;;;15.03;11.57;;;3.30;96.80;;;;;;5034018;28;20269;-68
2022/01/11 04:48:03;;;;;;;15.10;11.90;;;3.50;97.20;;;;;;5017466;28;20406;-68
2022/01/11 04:50:29;;;;;;;17.15;11.68;;;3.50;97.50;;;;;;5033378;28;20429;-75
2022/01/11 04:52:55;;;;;;;12.02;9.88;;;3.30;97.70;;;;;;5017214;28;20173;-67
2022/01/11 04:55:20;;;;;;;16.45;12.55;;;3.50;97.90;;;;;;5034728;28;20197;-67
2022/01/11 04:57:47;;;;;;;13.83;10.00;;;3.50;98.10;;;;;;5027363;28;20186;-67
2022/01/11 05:00:15;;;;;;;16.15;12.45;;;3.30;97.60;;;;;;5054155;28;20185;-67
2022/01/11 05:02:41;;;;;;;17.98;13.25;;;3.50;97.50;;;;;;5053384;28;20177;-67
2022/01/11 05:05:08;;;;;;;13.15;9.68;;;3.10;97.30;;;;;;5054484;28;20231;-67
2022/01/11 05:07:33;;;;;;;16.00;11.98;;;3.50;98.10;;;;;;5053584;28;20208;-67
2022/01/11 05:09:59;;;;;;;14.03;9.60;;;3.50;98.40;;;;;;5019882;28;20244;-67
2022/01/11 05:12:25;;;;;;;12.50;9.83;;;3.50;98.40;;;;;;5002601;28;20621;-67
2022/01/11 05:14:51;;;;;;;12.77;11.43;;;3.50;98.30;;;;;;5033477;28;20428;-67
2022/01/11 05:17:17;;;;;;;16.73;10.37;;;3.50;98.20;;;;;;5034143;28;20585;-67
2022/01/11 05:19:42;;;;;;;13.70;9.20;;;3.50;98.10;;;;;;5015365;28;20821;-67
2022/01/11 05:22:08;;;;;;;15.20;11.67;;;3.50;97.90;;;;;;5034325;28;20305;-67
2022/01/11 05:24:34;;;;;;;13.03;11.53;;;3.00;97.30;;;;;;5035702;28;20204;-67
2022/01/11 05:27:00;;;;;;;15.90;9.93;;;3.50;97.30;;;;;;5053760;28;20448;-67
2022/01/11 05:29:26;;;;;;;14.30;9.90;;;3.40;97.40;;;;;;5054350;28;20261;-66
2022/01/11 05:31:51;;;;;;;14.30;10.13;;;3.00;97.40;;;;;;5035392;28;20181;-67
2022/01/11 05:34:17;;;;;;;11.67;10.47;;;3.40;97.50;;;;;;5054042;28;20445;-67
2022/01/11 05:36:43;;;;;;;11.87;9.87;;;3.00;97.20;;;;;;5035305;28;20181;-67
2022/01/11 05:39:08;;;;;;;13.67;8.97;;;3.40;97.40;;;;;;5053065;28;20636;-67
2022/01/11 05:41:35;;;;;;;14.27;10.17;;;3.00;97.00;;;;;;5035715;28;20178;-67
2022/01/11 05:44:01;;;;;;;12.75;9.05;;;3.40;97.20;;;;;;5053906;28;20224;-67
2022/01/11 05:46:26;;;;;;;11.67;8.60;;;3.40;97.50;;;;;;5052367;28;20216;-67
2022/01/11 05:48:52;;;;;;;14.50;10.43;;;3.50;97.80;;;;;;5053207;28;20238;-67
2022/01/11 05:51:18;;;;;;;15.57;9.17;;;3.30;97.40;;;;;;5054050;28;20174;-67
2022/01/11 05:53:44;;;;;;;12.67;8.83;;;3.20;97.10;;;;;;5052285;28;20187;-67
2022/01/11 05:56:10;;;;;;;11.52;9.90;;;3.40;97.10;;;;;;5035802;28;20621;-67
2022/01/11 05:58:36;;;;;;;12.10;8.27;;;3.40;97.20;;;;;;5052483;28;20181;-67
2022/01/11 06:01:02;;;;;;;13.40;8.33;;;2.90;97.20;;;;;;5035437;28;20502;-67
2022/01/11 06:03:28;;;;;;;12.77;10.57;;;3.30;97.60;;;;;;5033210;28;20184;-67
2022/01/11 06:05:54;;;;;;;12.47;9.23;;;3.40;97.80;;;;;;5047719;28;20696;-67
2022/01/11 06:08:20;;;;;;;10.90;9.05;;;3.10;97.70;;;;;;5053781;28;20186;-68
2022/01/11 06:10:46;;;;;;;10.50;7.95;;;3.40;97.70;;;;;;5052068;28;20166;-68
2022/01/11 06:13:12;;;;;;;9.95;8.70;;;3.40;97.70;;;;;;5052941;28;20181;-69
2022/01/11 06:15:38;;;;;;;13.30;9.85;;;3.40;97.50;;;;;;5047551;28;20182;-67
2022/01/11 06:18:06;;;;;;;12.30;8.10;;;3.10;97.00;;;;;;5033889;28;20228;-67
2022/01/11 06:20:32;;;;;;;11.60;9.45;;;3.40;97.60;;;;;;5033016;28;20419;-69
2022/01/11 06:22:58;;;;;;;12.07;10.37;;;3.60;99.80;;;;;;5033444;28;20246;-68
2022/01/11 06:25:24;;;;;;;13.43;9.95;;;4.30;99.90;;;;;;5033347;28;20452;-69
2022/01/11 06:27:50;;;;;;;17.37;10.23;;;5.10;99.90;;;;;;5032729;28;20253;-68
2022/01/11 06:30:16;;;;;;;15.90;12.20;;;5.90;99.80;;;;;;5033258;28;20549;-69
2022/01/11 06:32:44;;;;;;;14.00;10.75;;;6.50;98.00;;;;;;5045293;28;20429;-69
2022/01/11 06:35:12;;;;;;;12.93;10.80;;;7.00;95.80;;;;;;5052858;28;20178;-68
2022/01/11 06:37:38;;;;;;;14.70;11.03;;;7.50;94.40;;;;;;5052808;28;20511;-68
2022/01/11 06:40:08;;;;;;;11.93;10.33;;;7.80;93.30;;;;;;5052821;28;20935;-68
2022/01/11 06:42:34;;;;;;;14.40;10.67;;;8.10;92.00;;;;;;5052173;28;20572;-71
2022/01/11 06:45:00;;;;;;;14.33;11.17;;;8.50;90.70;;;;;;5052610;28;20418;-70
2022/01/11 06:47:27;;;;;;;14.40;10.93;;;8.70;88.80;;;;;;5052209;28;20482;-70
2022/01/11 06:49:53;;;;;;;13.30;11.10;;;8.90;88.30;;;;;;5049942;28;20913;-70
2022/01/11 06:52:18;;;;;;;13.23;10.77;;;9.10;86.00;;;;;;5050671;28;20191;-68
2022/01/11 06:54:44;;;;;;;13.67;10.87;;;9.20;84.40;;;;;;5034074;28;20173;-69
2022/01/11 06:57:10;;;;;;;11.00;9.70;;;9.40;83.00;;;;;;5052848;28;20177;-69
2022/01/11 06:59:37;;;;;;;11.50;10.30;;;9.50;81.10;;;;;;5052256;28;20232;-69
2022/01/11 07:02:06;;;;;;;12.03;10.27;;;9.60;80.10;;;;;;5052802;28;20174;-69
2022/01/11 07:04:33;;;;;;;11.60;10.40;;;9.80;78.90;;;;;;5037580;28;20416;-69
2022/01/11 07:06:59;;;;;;;13.10;9.73;;;9.90;77.20;;;;;;5032855;28;20461;-69
2022/01/11 07:09:24;;;;;;;17.10;11.00;;;10.10;75.50;;;;;;5032892;28;20455;-68
2022/01/11 07:11:50;;;;;;;13.83;11.00;;;10.00;75.70;;;;;;5032057;28;20417;-70
2022/01/11 07:14:16;;;;;;;11.63;9.40;;;9.60;72.30;;;;;;5036098;28;20169;-71
2022/01/11 07:16:48;;;;;;;12.10;9.70;;;9.00;71.60;;;;;;5040172;28;20424;-71
2022/01/11 07:19:17;;;;;;;15.80;10.47;;;8.40;72.10;;;;;;5050673;28;20176;-68
2022/01/11 07:21:46;;;;;;;11.47;10.27;;;7.80;73.80;;;;;;5018555;28;20496;-69
2022/01/11 07:24:14;;;;;;;14.57;10.90;;;7.20;76.70;;;;;;5032938;28;20408;-68
2022/01/11 07:26:40;;;;;;;12.20;9.50;;;6.80;79.80;;;;;;5018940;28;20460;-69
2022/01/11 07:29:07;;;;;;;10.87;9.50;;;6.30;80.90;;;;;;5046652;28;20404;-68
2022/01/11 07:31:36;;;;;;;13.20;9.75;;;5.90;81.90;;;;;;5045598;28;20416;-70
2022/01/11 07:34:03;;;;;;;14.02;10.05;;;5.50;84.30;;;;;;5039314;28;20179;-70
2022/01/11 07:36:29;;;;;;;14.43;11.10;;;5.20;87.30;;;;;;5039429;28;20208;-70
2022/01/11 07:38:55;;;;;;;12.75;10.63;;;4.90;89.40;;;;;;5033467;28;20194;-69
2022/01/11 07:41:20;;;;;;;15.03;10.53;;;4.60;90.10;;;;;;5051202;28;20223;-69
2022/01/11 07:43:46;;;;;;;16.90;10.70;;;4.40;91.10;;;;;;5050906;28;20259;-70
2022/01/11 07:46:12;;;;;;;18.83;11.20;;;4.30;92.10;;;;;;5018208;28;20221;-70
2022/01/11 07:48:38;;;;;;;16.03;10.40;;;3.70;92.30;;;;;;5051791;28;20261;-81
2022/01/11 07:51:04;;;;;;;14.20;9.90;;;4.00;93.90;;;;;;5052299;28;20417;-70
2022/01/11 07:53:29;;;;;;;12.60;10.00;;;3.80;95.20;;;;;;5052100;28;20440;-70
2022/01/11 07:55:55;;;;;;;14.13;8.87;;;3.50;95.90;;;;;;5051336;28;20394;-70
2022/01/11 07:58:21;;;;;;;13.63;9.57;;;3.70;96.30;;;;;;5052414;28;20219;-70
2022/01/11 08:00:48;;;;;;;12.23;8.95;;;3.70;96.80;;;;;;5052030;28;20178;-70
2022/01/11 08:03:14;;;;;;;17.00;9.27;;;3.10;96.50;;;;;;5052349;28;20271;-70
2022/01/11 08:05:40;;;;;;;15.10;9.80;;;3.50;96.50;;;;;;5051788;28;20181;-81
2022/01/11 08:08:06;;;;;;;13.20;9.67;;;3.50;96.80;;;;;;5033795;28;20212;-70
2022/01/11 08:10:32;;;;;;;14.18;8.30;;;3.40;96.70;;;;;;5051574;28;20185;-70
2022/01/11 08:12:57;;;;;;;11.68;8.65;;;3.00;96.30;;;;;;5049879;28;20475;-70
2022/01/11 08:15:23;;;;;;;10.93;9.73;;;3.50;96.50;;;;;;5051650;28;20684;-70
2022/01/11 08:17:49;;;;;;;12.00;9.33;;;3.40;97.00;;;;;;5051447;28;20192;-70
2022/01/11 08:20:16;;;;;;;11.85;8.52;;;3.30;97.50;;;;;;5051658;28;20182;-70
2022/01/11 08:22:41;;;;;;;10.85;8.15;;;3.30;98.20;;;;;;5032993;28;20192;-77
2022/01/11 08:25:08;;;;;;;11.20;9.37;;;3.30;98.30;;;;;;5034742;28;20176;-70
2022/01/11 08:27:34;;;;;;;14.13;8.75;;;3.30;98.70;;;;;;5051804;28;20554;-70
2022/01/11 08:30:01;;;;;;;10.18;9.00;;;3.10;99.10;;;;;;5033428;28;20174;-70
2022/01/11 08:32:27;;;;;;;16.75;8.98;;;3.40;99.20;;;;;;5052658;28;20215;-70
2022/01/11 08:34:52;;;;;;;11.67;9.90;;;3.40;99.20;;;;;;5054752;28;20176;-70
2022/01/11 08:37:18;;;;;;;14.57;10.60;;;3.40;99.30;;;;;;5035762;28;20177;-71
2022/01/11 08:39:44;;;;;;;11.33;9.33;;;3.00;99.10;;;;;;5045958;28;20199;-71
2022/01/11 08:42:14;;;;;;;12.30;9.13;;;3.10;98.80;;;;;;5054918;28;20496;-70
2022/01/11 08:44:42;;;;;;;16.98;8.65;;;3.50;99.10;;;;;;5029222;28;20196;-82
2022/01/11 08:47:08;;;;;;;15.60;9.27;;;3.50;99.10;;;;;;5046732;28;20211;-70
2022/01/11 08:49:35;;;;;;;10.75;9.10;;;3.50;99.60;;;;;;5044061;28;20200;-71
2022/01/11 08:52:01;;;;;;;12.38;8.73;;;3.50;99.80;;;;;;5047658;28;20406;-73
2022/01/11 08:54:27;;;;;;;12.02;8.70;;;3.50;99.90;;;;;;5038449;28;20539;-69
2022/01/11 08:56:55;;;;;;;12.35;8.57;;;3.10;99.90;;;;;;5029891;28;20182;-71
2022/01/11 08:59:22;;;;;;;15.88;9.93;;;3.60;99.90;;;;;;5029312;28;20178;-71
2022/01/11 09:01:49;;;;;;;10.70;8.68;;;3.70;99.90;;;;;;5055702;28;20190;-71
2022/01/11 09:04:16;;;;;;;12.20;9.75;;;3.80;99.90;;;;;;5020291;28;20229;-71
2022/01/11 09:06:42;;;;;;;9.93;8.77;;;3.90;99.90;;;;;;5031497;28;20209;-83
2022/01/11 09:09:09;;;;;;;12.30;9.43;;;4.50;99.90;;;;;;5057693;28;20637;-68
2022/01/11 09:11:34;;;;;;;9.90;8.23;;;5.90;98.60;;;;;;5049311;28;20185;-69
2022/01/11 09:14:00;;;;;;;9.30;8.40;;;7.10;96.00;;;;;;5022766;28;20452;-71
2022/01/11 09:16:26;;;;;;;10.60;9.03;;;8.60;92.80;;;;;;5018772;28;20275;-70
2022/01/11 09:18:52;;;;;;;10.27;9.27;;;10.20;89.20;;;;;;5046524;28;20177;-70
2022/01/11 09:21:20;;;;;;;10.70;9.13;;;11.70;82.40;;;;;;5049900;28;20916;-69
2022/01/11 09:23:47;;;;;;;11.10;9.50;;;13.00;75.30;;;;;;5053848;28;20424;-70
2022/01/11 09:26:13;;;;;;;11.83;10.50;;;14.30;69.70;;;;;;5035755;28;20567;-68
2022/01/11 09:28:40;;;;;;;12.00;10.63;;;15.40;65.30;;;;;;5034444;28;20401;-68
2022/01/11 09:31:07;;;;;;;14.43;11.73;;;16.10;60.10;;;;;;5028248;28;20428;-68
2022/01/11 09:33:33;;;;;;;14.73;12.40;;;16.60;57.60;;;;;;5025416;28;20478;-69
2022/01/11 09:36:00;;;;;;;15.23;13.57;;;17.10;57.00;;;;;;5021048;28;20444;-69
2022/01/11 09:38:27;;;;;;;14.33;12.20;;;17.70;55.50;;;;;;5045422;28;20406;-70
2022/01/11 09:40:56;;;;;;;14.70;12.67;;;18.10;54.30;;;;;;5040656;28;20417;-69
2022/01/11 09:43:24;;;;;;;15.70;14.30;;;18.40;53.00;;;;;;5045457;28;20510;-69
2022/01/11 09:45:51;;;;;;;14.37;12.97;;;18.50;52.30;;;;;;5071390;28;20399;-69
2022/01/11 09:48:22;;;;;;;16.03;12.13;;;18.30;53.00;;;;;;5064374;28;20432;-70
2022/01/11 09:50:48;;;;;;;15.70;14.20;;;18.20;52.60;;;;;;5071086;28;20793;-69
2022/01/11 09:53:14;;;;;;;14.40;12.90;;;18.20;52.50;;;;;;5073431;28;20933;-69
2022/01/11 09:55:41;;;;;;;14.53;13.20;;;18.30;52.20;;;;;;5072525;28;20408;-69
2022/01/11 09:58:07;;;;;;;14.03;12.63;;;18.30;52.10;;;;;;5072984;28;20938;-69
2022/01/11 10:00:33;;;;;;;15.07;13.27;;;17.90;52.50;;;;;;5073271;28;20412;-69
2022/01/11 10:03:00;;;;;;;14.23;12.80;;;17.50;53.10;;;;;;5071458;28;20407;-69
2022/01/11 10:05:27;;;;;;;14.37;12.83;;;17.00;54.10;;;;;;5064642;28;20435;-69
2022/01/11 10:07:53;;;;;;;16.23;13.90;;;16.70;55.10;;;;;;5072395;28;20458;-69
2022/01/11 10:10:24;;;;;;;13.27;11.87;;;16.50;55.80;;;;;;5073340;28;20914;-69
2022/01/11 10:12:55;;;;;;;13.83;11.13;;;16.60;55.90;;;;;;5067293;28;20177;-68
2022/01/11 10:15:33;;;;;;;13.23;11.93;;;16.70;56.10;;;;;;5053297;28;20400;-71
2022/01/11 10:17:59;;;;;;;13.53;12.20;;;16.70;56.70;;;;;;5053024;28;20414;-71
2022/01/11 10:20:26;;;;;;;14.67;12.00;;;17.00;56.00;;;;;;5053426;28;20446;-69
2022/01/11 10:23:01;;;;;;;14.97;12.53;;;17.00;55.70;;;;;;5068173;28;20181;-69
2022/01/11 10:25:40;;;;;;;13.43;11.93;;;17.00;56.00;;;;;;5071958;28;20505;-69
2022/01/11 10:28:06;;;;;;;13.63;11.50;;;16.70;57.00;;;;;;5072525;28;20526;-68
2022/01/11 10:30:35;;;;;;;13.30;11.87;;;16.40;57.90;;;;;;5055388;28;20829;-70
2022/01/11 10:33:06;;;;;;;12.87;11.53;;;16.20;58.90;;;;;;5067665;28;20496;-69
2022/01/11 10:35:44;;;;;;;15.80;11.43;;;15.70;59.40;;;;;;5062131;28;20418;-69
2022/01/11 10:38:12;;;;;;;13.60;11.57;;;15.20;62.00;;;;;;5072457;28;20493;-70
2022/01/11 10:40:45;;;;;;;14.53;12.50;;;14.80;63.30;;;;;;5070890;28;20402;-69
2022/01/11 10:43:13;;;;;;;17.13;14.00;;;14.70;62.30;;;;;;5064136;28;20487;-70
2022/01/11 10:45:41;;;;;;;18.67;12.90;;;14.70;62.30;;;;;;5034682;28;20441;-71
2022/01/11 10:48:08;;;;;;;19.87;14.43;;;14.60;64.10;;;;;;5033449;28;20463;-70
2022/01/11 10:50:43;;;;;;;13.10;11.70;;;14.30;66.20;;;;;;5052490;28;20466;-69
2022/01/11 10:53:39;;;;;;;12.70;9.73;;;14.00;68.00;;;;;;5034731;28;20743;-70
2022/01/11 10:56:06;;;;;;;15.50;13.93;;;13.70;66.60;;;;;;5048975;28;21023;-69
2022/01/11 10:58:35;;;;;;;11.97;10.20;;;13.50;68.80;;;;;;5051752;28;20941;-68
2022/01/11 11:01:02;;;;;;;13.93;11.13;;;13.40;68.80;;;;;;5051010;28;20419;-69
2022/01/11 11:03:33;;;;;;;11.73;9.93;;;13.30;69.40;;;;;;5044179;28;20455;-68
2022/01/11 11:06:10;;;;;;;15.37;13.80;;;13.30;70.10;;;;;;5031913;28;20902;-69
2022/01/11 11:08:42;;;;;;;12.50;11.20;;;13.30;71.00;;;;;;5047009;28;20431;-69
2022/01/11 11:11:11;;;;;;;14.13;12.10;;;13.20;73.90;;;;;;5034325;28;20395;-69
2022/01/11 11:13:45;;;;;;;12.67;11.47;;;13.10;75.40;;;;;;5052774;28;20423;-69
2022/01/11 11:16:17;;;;;;;14.43;12.70;;;13.20;72.20;;;;;;5052426;28;20398;-68
2022/01/11 11:18:58;;;;;;;12.80;10.63;;;13.10;72.40;;;;;;5052667;28;20429;-69
2022/01/11 11:21:23;;;;;;;12.60;11.00;;;13.00;72.90;;;;;;5052311;28;20397;-69
2022/01/11 11:24:14;;;;;;;14.57;11.10;;;13.00;74.40;;;;;;5051994;28;20413;-69
2022/01/11 11:26:42;;;;;;;14.27;10.30;;;13.00;75.10;;;;;;5049662;28;20496;-69
2022/01/11 11:29:10;;;;;;;14.20;12.50;;;13.00;75.30;;;;;;5049305;28;20524;-69
2022/01/11 11:31:37;;;;;;;14.97;10.67;;;13.00;76.60;;;;;;5052250;28;20423;-71
2022/01/11 11:34:04;;;;;;;15.33;10.40;;;13.00;77.20;;;;;;5031472;28;20444;-69
2022/01/11 11:36:31;;;;;;;16.23;11.93;;;13.00;78.20;;;;;;5032228;28;20898;-70
2022/01/11 11:39:06;;;;;;;13.80;11.53;;;13.00;80.50;;;;;;5047016;28;20415;-69
2022/01/11 11:41:36;;;;;;;12.80;11.50;;;13.00;80.40;;;;;;5044677;28;20412;-69
2022/01/11 11:44:09;;;;;;;13.30;10.73;;;13.10;81.00;;;;;;5037518;28;20494;-71
2022/01/11 11:46:52;;;;;;;13.87;12.20;;;13.30;78.50;;;;;;5043419;28;20466;-70
2022/01/11 11:49:43;;;;;;;13.37;11.07;;;13.40;76.50;;;;;;5034070;28;20400;-71
2022/01/11 11:52:18;;;;;;;12.30;10.80;;;13.60;75.50;;;;;;5013153;28;20531;-70
2022/01/11 11:55:10;;;;;;;12.60;11.30;;;13.70;73.70;;;;;;5014982;28;20461;-70
2022/01/11 11:57:40;;;;;;;14.30;10.30;;;13.70;74.10;;;;;;5023825;28;20434;-69
2022/01/11 12:00:15;;;;;;;12.80;11.50;;;13.70;70.50;;;;;;5048207;28;20507;-71
2022/01/11 12:02:48;;;;;;;13.17;10.17;;;13.70;72.30;;;;;;5013986;28;20420;-68
2022/01/11 12:05:36;;;;;;;9.97;8.97;;;13.70;71.00;;;;;;5033138;28;20423;-71
2022/01/11 12:08:41;;;;;;;11.10;10.00;;;14.30;90.30;;;;;;5033073;28;20449;-71
2022/01/11 12:11:10;;;;;;;7.83;6.80;;;15.10;83.30;;;;;;5034867;28;20869;-72
2022/01/11 12:13:39;;;;;;;7.43;6.30;;;15.70;77.10;;;;;;5035901;28;20431;-72
2022/01/11 12:16:34;;;;;;;8.57;7.60;;;16.10;72.90;;;;;;5050592;28;20816;-71
2022/01/11 12:19:11;;;;;;;6.30;5.80;;;16.60;77.20;;;;;;5043245;28;20459;-72
2022/01/11 12:21:52;;;;;;;6.30;5.87;;;16.70;60.90;;;;;;5055098;28;20384;-72
2022/01/11 12:24:38;;;;;;;5.00;4.60;;;16.90;75.00;;;;;;5037381;28;20511;-72
2022/01/11 12:27:06;;;;;;;5.00;4.60;;;16.90;59.40;;;;;;5054368;28;20455;-73
2022/01/11 12:29:31;;;;;;;4.13;3.80;;;16.60;57.60;;;;;;5055012;28;20452;-70
2022/01/11 12:32:07;;;;;;;4.43;3.80;;;16.10;57.40;;;;;;5036941;28;20446;-70
2022/01/11 12:35:08;;;;;;;3.57;3.37;;;15.70;58.80;;;;;;5037739;28;20160;-68
2022/01/11 12:37:44;;;;;;;4.17;3.87;;;15.10;58.60;;;;;;5055364;28;20400;-70
2022/01/11 12:40:25;;;;;;;3.60;3.40;;;14.70;59.80;;;;;;5039648;28;20421;-70
2022/01/11 12:43:05;;;;;;;4.30;3.97;;;14.40;59.20;;;;;;5024640;28;20601;-76
2022/01/11 12:46:19;;;;;;;4.23;3.90;;;14.20;60.10;;;;;;5057580;28;20426;-69
2022/01/11 12:48:53;;;;;;;4.73;4.37;;;14.10;62.90;;;;;;5059221;28;20926;-70